Time;durP1;ratioP1;P1;durP2;ratioP2;P2;SDS_P1;SDS_P2;PMS_P1;PMS_P2;Temp;Humidity;BMP_temperature;BMP_pressure;BME280_temperature;BME280_humidity;BME280_pressure;Samples;Min_cycle;Max_cycle;Signal;HPM_P1;HPM_P2
2024/01/26 00:02:22;;;;;;;38.20;15.23;;;;;;;8.98;100.00;100968.25;5032572;28;20048;-81
2024/01/26 00:04:49;;;;;;;38.90;14.55;;;;;;;8.98;100.00;100981.50;5065051;28;20064;-81
2024/01/26 00:07:16;;;;;;;61.53;19.10;;;;;;;8.97;100.00;100995.69;5029953;28;20128;-81
2024/01/26 00:09:43;;;;;;;47.38;16.05;;;;;;;8.96;100.00;100994.00;5029159;28;20094;-81
2024/01/26 00:12:10;;;;;;;42.92;15.57;;;;;;;8.98;100.00;100988.56;5045362;28;20051;-81
2024/01/26 00:14:37;;;;;;;42.05;14.05;;;;;;;8.99;100.00;100998.25;5036389;28;20713;-81
2024/01/26 00:17:04;;;;;;;41.00;14.38;;;;;;;8.99;100.00;100992.94;5016999;28;20060;-81
2024/01/26 00:19:31;;;;;;;34.80;12.80;;;;;;;8.98;100.00;100994.75;5029802;28;20044;-81
2024/01/26 00:21:58;;;;;;;38.75;12.73;;;;;;;8.97;100.00;100997.50;5005606;28;20045;-81
2024/01/26 00:24:25;;;;;;;33.78;11.77;;;;;;;8.98;100.00;100992.09;5034214;28;20075;-81
2024/01/26 00:26:52;;;;;;;40.20;12.25;;;;;;;8.98;100.00;100992.09;4996635;28;20054;-81
2024/01/26 00:29:19;;;;;;;45.55;14.13;;;;;;;8.99;100.00;100992.94;5013408;28;20528;-81
2024/01/26 00:31:46;;;;;;;40.20;13.73;;;;;;;8.99;100.00;100995.59;5031852;28;20122;-81
2024/01/26 00:34:12;;;;;;;40.70;13.55;;;;;;;9.01;100.00;101004.31;5018235;28;20049;-81
2024/01/26 00:36:39;;;;;;;39.70;13.82;;;;;;;8.99;100.00;100995.59;5061933;28;20049;-81
2024/01/26 00:39:09;;;;;;;43.55;14.73;;;;;;;8.98;100.00;100992.09;5047135;28;20048;-81
2024/01/26 00:41:36;;;;;;;45.65;14.30;;;;;;;8.98;100.00;100997.41;5022099;28;20144;-82
2024/01/26 00:44:03;;;;;;;49.88;14.20;;;;;;;8.98;100.00;100993.88;5032287;28;20369;-81
2024/01/26 00:46:29;;;;;;;44.03;15.05;;;;;;;8.97;100.00;100987.72;5031693;28;20053;-81
2024/01/26 00:48:56;;;;;;;40.60;15.13;;;;;;;8.99;100.00;100992.94;5017860;28;20056;-81
2024/01/26 00:51:23;;;;;;;53.80;17.00;;;;;;;8.97;100.00;100989.53;5034812;28;20059;-81
2024/01/26 00:53:50;;;;;;;50.20;16.60;;;;;;;8.99;100.00;100979.69;5018388;28;20053;-81
2024/01/26 00:56:17;;;;;;;48.45;15.80;;;;;;;9.00;100.00;100984.03;5022464;28;20041;-81
2024/01/26 00:58:44;;;;;;;51.17;16.17;;;;;;;9.04;100.00;100988.22;5029756;28;20049;-81
2024/01/26 01:01:10;;;;;;;45.50;17.25;;;;;;;9.03;100.00;100986.47;5040032;28;20073;-81
2024/01/26 01:03:37;;;;;;;45.17;15.55;;;;;;;9.04;100.00;100991.69;5036268;28;20675;-81
2024/01/26 01:06:04;;;;;;;42.80;15.02;;;;;;;9.05;100.00;100987.25;5034491;28;20045;-81
2024/01/26 01:08:31;;;;;;;52.60;17.98;;;;;;;9.05;100.00;100990.75;5020602;28;20049;-81
2024/01/26 01:10:58;;;;;;;57.78;17.92;;;;;;;9.08;100.00;101001.16;5017735;28;20041;-81
2024/01/26 01:13:25;;;;;;;55.33;17.85;;;;;;;9.09;100.00;100996.72;5000207;28;20043;-81
2024/01/26 01:15:51;;;;;;;49.63;18.70;;;;;;;9.12;100.00;101000.00;5044697;28;20053;-81
2024/01/26 01:18:19;;;;;;;60.25;19.63;;;;;;;9.15;100.00;100996.31;5032755;28;20437;-81
2024/01/26 01:20:46;;;;;;;60.15;21.45;;;;;;;9.17;100.00;100996.22;5059896;28;20551;-81
2024/01/26 01:23:15;;;;;;;68.10;19.90;;;;;;;9.17;100.00;100996.22;5020336;28;20552;-81
2024/01/26 01:25:42;;;;;;;67.97;20.40;;;;;;;9.17;100.00;100997.06;5043942;28;20053;-81
2024/01/26 01:28:09;;;;;;;62.17;20.85;;;;;;;9.19;100.00;100992.53;5014495;28;20045;-81
2024/01/26 01:30:35;;;;;;;62.67;20.55;;;;;;;9.21;100.00;100995.94;5034873;28;20132;-81
2024/01/26 01:33:02;;;;;;;63.67;20.65;;;;;;;9.20;100.00;100990.72;5051266;28;20045;-81
2024/01/26 01:35:29;;;;;;;56.00;19.80;;;;;;;9.22;100.00;100988.81;5060853;28;20046;-81
2024/01/26 01:37:56;;;;;;;65.78;22.23;;;;;;;9.22;100.00;100981.72;5035654;28;20548;-81
2024/01/26 01:40:23;;;;;;;56.72;19.55;;;;;;;9.24;100.00;100984.28;5035265;28;20048;-81
2024/01/26 01:42:50;;;;;;;67.18;21.58;;;;;;;9.24;100.00;100978.97;5019466;28;20041;-81
2024/01/26 01:45:16;;;;;;;66.93;20.88;;;;;;;9.25;100.00;100978.03;5033998;28;20385;-80
2024/01/26 01:47:43;;;;;;;66.40;20.83;;;;;;;9.25;100.00;100973.56;5022858;28;20041;-81
2024/01/26 01:50:10;;;;;;;64.97;21.40;;;;;;;9.26;100.00;100969.97;5042564;28;20134;-81
2024/01/26 01:52:42;;;;;;;59.55;21.42;;;;;;;9.25;100.00;100970.91;5015131;28;20152;-81
2024/01/26 01:55:10;;;;;;;73.85;21.90;;;;;;;9.24;100.00;100969.22;5018765;28;20099;-81
2024/01/26 01:57:39;;;;;;;60.13;19.58;;;;;;;9.26;100.00;100967.34;5045436;28;20060;-81
2024/01/26 02:00:15;;;;;;;65.40;21.73;;;;;;;9.27;100.00;100965.53;5031231;28;20392;-81
2024/01/26 02:02:44;;;;;;;65.90;20.85;;;;;;;9.27;100.00;100970.81;5047714;28;20049;-81
2024/01/26 02:05:11;;;;;;;62.25;21.05;;;;;;;9.28;100.00;100968.06;5068520;28;20048;-81
2024/01/26 02:07:38;;;;;;;66.55;21.48;;;;;;;9.26;100.00;100967.34;5024177;28;20044;-81
2024/01/26 02:10:12;;;;;;;70.20;22.30;;;;;;;9.26;100.00;100969.97;5030996;28;20055;-82
2024/01/26 02:12:39;;;;;;;60.58;20.25;;;;;;;9.26;100.00;100974.41;5031422;28;20045;-81
2024/01/26 02:15:08;;;;;;;64.82;22.33;;;;;;;9.27;100.00;100973.47;5064430;28;20527;-81
2024/01/26 02:17:36;;;;;;;66.78;22.10;;;;;;;9.28;100.00;100977.81;5044097;28;20077;-81
2024/01/26 02:20:04;;;;;;;57.20;19.75;;;;;;;9.29;100.00;100971.59;5032677;28;20042;-81
2024/01/26 02:22:31;;;;;;;60.35;20.33;;;;;;;9.29;100.00;100966.28;5031727;28;20445;-81
2024/01/26 02:24:58;;;;;;;55.08;20.00;;;;;;;9.28;100.00;100973.34;5050114;28;20045;-82
2024/01/26 02:27:25;;;;;;;62.88;21.52;;;;;;;9.29;100.00;100961.81;5059236;28;20157;-81
2024/01/26 02:29:51;;;;;;;62.30;19.60;;;;;;;9.29;100.00;100953.88;5048219;28;20075;-81
2024/01/26 02:32:18;;;;;;;60.42;19.70;;;;;;;9.30;100.00;100955.56;5007442;28;20900;-82
2024/01/26 02:34:45;;;;;;;59.42;19.85;;;;;;;9.29;100.00;100961.81;5018155;28;20585;-81
2024/01/26 02:37:12;;;;;;;55.63;18.67;;;;;;;9.29;100.00;100959.19;5035018;28;20485;-82
2024/01/26 02:39:39;;;;;;;54.75;16.75;;;;;;;9.29;100.00;100963.63;5032043;28;20205;-81
2024/01/26 02:42:05;;;;;;;53.60;17.48;;;;;;;9.29;100.00;100955.69;5047019;28;20044;-81
2024/01/26 02:44:33;;;;;;;56.10;17.75;;;;;;;9.29;100.00;100956.53;5031046;28;20049;-81
2024/01/26 02:47:00;;;;;;;46.60;16.35;;;;;;;9.29;100.00;100960.97;5028532;28;20060;-81
2024/01/26 02:49:28;;;;;;;48.58;17.02;;;;;;;9.28;100.00;100960.09;5039526;28;20153;-80
2024/01/26 02:51:55;;;;;;;44.05;14.93;;;;;;;9.26;100.00;100959.38;5046114;28;20654;-81
2024/01/26 02:54:22;;;;;;;50.75;16.80;;;;;;;9.29;100.00;100961.81;5024881;28;20037;-81
2024/01/26 02:56:50;;;;;;;50.80;15.35;;;;;;;9.28;100.00;100964.56;5052831;28;20053;-81
2024/01/26 02:59:17;;;;;;;37.40;13.98;;;;;;;9.28;100.00;100960.09;5052422;28;20133;-81
2024/01/26 03:01:46;;;;;;;39.22;12.85;;;;;;;9.27;100.00;100953.13;5036831;28;20053;-81
2024/01/26 03:04:13;;;;;;;37.08;12.50;;;;;;;9.28;100.00;100951.31;5006385;28;20567;-81
2024/01/26 03:06:40;;;;;;;32.83;12.35;;;;;;;9.27;100.00;100947.81;5015781;28;20053;-81
2024/01/26 03:09:07;;;;;;;30.58;12.52;;;;;;;9.28;100.00;100954.81;5039673;28;20119;-81
2024/01/26 03:11:38;;;;;;;35.70;12.52;;;;;;;9.27;100.00;100953.13;5019155;28;20049;-81
2024/01/26 03:14:06;;;;;;;32.33;12.57;;;;;;;9.27;100.00;100958.41;5035677;28;20044;-81
2024/01/26 03:16:33;;;;;;;30.05;12.20;;;;;;;9.27;100.00;100955.78;5034564;28;20064;-81
2024/01/26 03:19:00;;;;;;;33.10;11.68;;;;;;;9.27;100.00;100958.41;5049238;28;20037;-81
2024/01/26 03:21:27;;;;;;;30.20;9.70;;;;;;;9.27;100.00;100962.88;5031433;28;20060;-82
2024/01/26 03:23:54;;;;;;;28.38;10.23;;;;;;;9.26;100.00;100964.69;5023587;28;20122;-81
2024/01/26 03:26:21;;;;;;;25.13;10.32;;;;;;;9.27;100.00;100961.06;5033162;28;20086;-81
2024/01/26 03:28:48;;;;;;;29.83;10.10;;;;;;;9.29;100.00;100964.47;5066532;28;20574;-80
2024/01/26 03:31:15;;;;;;;29.27;10.20;;;;;;;9.29;100.00;100967.13;5063565;28;20048;-81
2024/01/26 03:33:43;;;;;;;31.58;10.43;;;;;;;9.29;100.00;100964.47;5005430;28;20103;-81
2024/01/26 03:36:12;;;;;;;22.60;9.40;;;;;;;9.28;100.00;100964.56;5064681;28;20046;-81
2024/01/26 03:38:39;;;;;;;19.88;8.05;;;;;;;9.27;100.00;100969.03;5031872;28;20038;-81
2024/01/26 03:41:06;;;;;;;28.20;8.43;;;;;;;9.24;100.00;100963.94;5019192;28;20134;-81
2024/01/26 03:43:33;;;;;;;22.08;9.07;;;;;;;9.26;100.00;100971.75;5047462;28;20091;-81
2024/01/26 03:46:02;;;;;;;23.70;7.63;;;;;;;9.27;100.00;100965.53;5032720;28;20106;-81
2024/01/26 03:48:29;;;;;;;18.15;7.47;;;;;;;9.27;100.00;100958.41;5068948;28;20480;-81
2024/01/26 03:50:57;;;;;;;17.35;6.57;;;;;;;9.27;100.00;100960.22;5047589;28;20741;-81
2024/01/26 03:53:24;;;;;;;15.93;6.10;;;;;;;9.29;100.00;100960.97;5007068;28;20435;-81
2024/01/26 03:55:52;;;;;;;13.27;6.25;;;;;;;9.31;100.00;100972.31;5018375;28;20061;-81
2024/01/26 03:58:19;;;;;;;18.95;5.82;;;;;;;9.33;100.00;100970.41;5033514;28;20047;-81
2024/01/26 04:00:46;;;;;;;13.77;5.38;;;;;;;9.33;100.00;100971.25;5063433;28;20487;-82
2024/01/26 04:03:13;;;;;;;13.50;5.57;;;;;;;9.34;100.00;100972.13;5003084;28;20065;-82
2024/01/26 04:05:40;;;;;;;11.60;4.63;;;;;;;9.34;100.00;100970.34;5060647;28;20194;-82
2024/01/26 04:08:06;;;;;;;14.40;5.05;;;;;;;9.37;100.00;100976.38;5002203;28;20051;-81
2024/01/26 04:10:33;;;;;;;16.08;5.88;;;;;;;9.34;100.00;100967.69;5031636;28;20045;-81
2024/01/26 04:13:00;;;;;;;14.15;5.68;;;;;;;9.34;100.00;100975.63;5018479;28;20037;-82
2024/01/26 04:15:26;;;;;;;14.90;6.10;;;;;;;9.34;100.00;100977.44;5031148;28;20538;-82
2024/01/26 04:17:53;;;;;;;18.33;6.97;;;;;;;9.34;100.00;100970.34;5008211;28;20045;-81
2024/01/26 04:20:20;;;;;;;18.27;7.25;;;;;;;9.34;100.00;100966.84;5035224;28;20049;-81
2024/01/26 04:22:47;;;;;;;16.17;7.40;;;;;;;9.33;100.00;100968.59;5048321;28;20499;-81
2024/01/26 04:25:14;;;;;;;16.73;6.13;;;;;;;9.34;100.00;100964.19;5016724;28;20489;-81
2024/01/26 04:27:41;;;;;;;16.33;6.20;;;;;;;9.32;100.00;100961.63;5029637;28;20128;-82
2024/01/26 04:30:08;;;;;;;20.48;6.85;;;;;;;9.32;100.00;100956.31;5016467;28;20130;-81
2024/01/26 04:32:36;;;;;;;9.73;5.18;;;;;;;9.33;100.00;100952.69;5020442;28;20144;-81
2024/01/26 04:35:03;;;;;;;13.65;5.45;;;;;;;9.33;100.00;100958.00;5023952;28;20049;-81
2024/01/26 04:37:30;;;;;;;16.45;6.28;;;;;;;9.33;100.00;100952.69;5032614;28;20095;-81
2024/01/26 04:39:57;;;;;;;9.45;5.05;;;;;;;9.33;100.00;100944.75;5044090;28;20073;-81
2024/01/26 04:42:23;;;;;;;17.77;5.60;;;;;;;9.31;100.00;100944.03;5035386;28;20511;-82
2024/01/26 04:44:50;;;;;;;11.27;5.55;;;;;;;9.31;100.00;100951.97;5016605;28;20491;-81
2024/01/26 04:47:17;;;;;;;14.38;5.28;;;;;;;9.32;100.00;100952.81;5035689;28;20060;-81
2024/01/26 04:49:44;;;;;;;10.45;4.78;;;;;;;9.32;100.00;100953.66;5062345;28;20384;-81
2024/01/26 04:52:11;;;;;;;14.85;5.05;;;;;;;9.32;100.00;100960.78;5032229;28;20132;-81
2024/01/26 04:54:37;;;;;;;11.90;5.88;;;;;;;9.31;100.00;100957.28;5014975;28;20041;-82
2024/01/26 04:57:04;;;;;;;10.43;5.05;;;;;;;9.31;100.00;100962.59;5028403;28;20042;-81
2024/01/26 04:59:32;;;;;;;11.98;5.85;;;;;;;9.31;100.00;100951.97;5035038;28;20048;-81
2024/01/26 05:01:59;;;;;;;16.17;6.25;;;;;;;9.32;100.00;100952.81;5037243;28;20068;-81
2024/01/26 05:04:26;;;;;;;13.38;5.78;;;;;;;9.32;100.00;100950.19;5016703;28;20069;-81
2024/01/26 05:06:52;;;;;;;13.65;5.93;;;;;;;9.30;100.00;100955.56;5000601;28;20496;-81
2024/01/26 05:09:20;;;;;;;13.57;7.65;;;;;;;9.29;100.00;100951.22;5033533;28;20045;-82
2024/01/26 05:11:47;;;;;;;15.38;8.20;;;;;;;9.30;100.00;100965.31;5038060;28;20048;-81
2024/01/26 05:14:14;;;;;;;18.00;7.30;;;;;;;9.28;100.00;100957.47;5020088;28;20687;-81
2024/01/26 05:16:40;;;;;;;16.15;8.95;;;;;;;9.27;100.00;100955.78;5021972;28;20553;-82
2024/01/26 05:19:07;;;;;;;15.70;7.60;;;;;;;9.29;100.00;100960.97;5016060;28;20048;-81
2024/01/26 05:21:34;;;;;;;18.02;7.05;;;;;;;9.28;100.00;100956.63;5048505;28;20442;-81
2024/01/26 05:24:01;;;;;;;14.50;6.57;;;;;;;9.29;100.00;100953.88;5032977;28;20044;-82
2024/01/26 05:26:28;;;;;;;14.50;5.75;;;;;;;9.29;100.00;100945.91;5021876;28;20139;-81
2024/01/26 05:28:55;;;;;;;11.43;5.30;;;;;;;9.30;100.00;100947.63;5025099;28;20067;-81
2024/01/26 05:31:22;;;;;;;16.10;5.32;;;;;;;9.30;100.00;100941.47;5036594;28;20049;-82
2024/01/26 05:33:49;;;;;;;13.23;5.65;;;;;;;9.29;100.00;100937.97;5028835;28;20706;-81
2024/01/26 05:36:16;;;;;;;16.13;5.72;;;;;;;9.31;100.00;100937.84;5010160;28;20125;-81
2024/01/26 05:38:42;;;;;;;13.10;5.15;;;;;;;9.31;100.00;100933.44;5029557;28;20045;-81
2024/01/26 05:41:09;;;;;;;10.82;5.18;;;;;;;9.31;100.00;100930.78;5031155;28;20072;-81
2024/01/26 05:43:36;;;;;;;11.70;3.78;;;;;;;9.31;100.00;100927.25;5047510;28;20045;-82
2024/01/26 05:46:03;;;;;;;9.00;4.38;;;;;;;9.32;100.00;100924.50;5031662;28;20057;-81
2024/01/26 05:48:30;;;;;;;10.55;4.43;;;;;;;9.33;100.00;100928.00;5049716;28;20034;-81
2024/01/26 05:50:57;;;;;;;12.60;5.35;;;;;;;9.33;100.00;100926.19;5017653;28;20121;-81
2024/01/26 05:53:23;;;;;;;12.05;4.35;;;;;;;9.34;100.00;100927.91;5031461;28;20060;-81
2024/01/26 05:55:50;;;;;;;7.10;2.90;;;;;;;9.34;100.00;100932.38;5041249;28;20045;-81
2024/01/26 05:58:17;;;;;;;11.02;2.90;;;;;;;9.34;100.00;100938.53;5036764;28;22628;-82
2024/01/26 06:00:44;;;;;;;7.05;2.95;;;;;;;9.37;100.00;100931.31;5017478;28;20077;-82
2024/01/26 06:03:11;;;;;;;9.07;3.92;;;;;;;9.35;100.00;100923.47;5037558;28;20400;-82
2024/01/26 06:05:38;;;;;;;8.45;3.38;;;;;;;9.37;100.00;100918.06;5055120;28;20052;-81
2024/01/26 06:08:05;;;;;;;6.75;2.60;;;;;;;9.37;100.00;100926.88;5021738;28;20041;-81
2024/01/26 06:10:32;;;;;;;5.97;2.58;;;;;;;9.38;100.00;100935.66;5033773;28;20037;-82
2024/01/26 06:12:58;;;;;;;8.73;3.00;;;;;;;9.38;100.00;100933.00;5023816;28;20128;-82
2024/01/26 06:15:25;;;;;;;5.78;3.15;;;;;;;9.39;100.00;100938.22;5051966;28;20404;-81
2024/01/26 06:17:52;;;;;;;9.02;3.53;;;;;;;9.39;100.00;100929.41;5007913;28;20546;-81
2024/01/26 06:20:19;;;;;;;7.72;3.83;;;;;;;9.39;100.00;100932.91;5049392;28;20048;-80
2024/01/26 06:22:45;;;;;;;8.77;3.28;;;;;;;9.40;100.00;100926.66;5015276;28;20041;-81
2024/01/26 06:25:12;;;;;;;3.55;2.17;;;;;;;9.41;100.00;100932.81;5037304;28;20053;-82
2024/01/26 06:27:39;;;;;;;7.35;2.50;;;;;;;9.41;100.00;100940.75;5043357;28;20665;-81
2024/01/26 06:30:06;;;;;;;7.00;2.53;;;;;;;9.42;100.00;100934.53;5033941;28;20132;-81
2024/01/26 06:32:33;;;;;;;6.10;2.90;;;;;;;9.43;100.00;100946.81;5066589;28;20065;-81
2024/01/26 06:34:59;;;;;;;5.93;2.80;;;;;;;9.43;100.00;100941.50;5029609;28;20645;-81
2024/01/26 06:37:26;;;;;;;8.75;2.35;;;;;;;9.43;100.00;100947.66;5064195;28;20124;-81
2024/01/26 06:39:55;;;;;;;8.52;3.03;;;;;;;9.42;100.00;100943.31;5033859;28;20101;-82
2024/01/26 06:42:25;;;;;;;5.85;2.70;;;;;;;9.45;100.00;100944.91;5022097;28;20476;-82
2024/01/26 06:44:53;;;;;;;5.38;2.72;;;;;;;9.44;100.00;100936.13;5022924;28;20057;-82
2024/01/26 06:47:20;;;;;;;5.38;3.13;;;;;;;9.43;100.00;100933.56;5035345;28;20559;-81
2024/01/26 06:49:48;;;;;;;22.05;8.32;;;;;;;9.44;100.00;100929.94;5029973;28;20136;-80
2024/01/26 06:52:14;;;;;;;16.30;6.38;;;;;;;9.44;100.00;100929.94;4998088;28;20077;-80
2024/01/26 06:54:41;;;;;;;9.38;5.68;;;;;;;9.46;100.00;100928.03;5017537;28;20067;-81
2024/01/26 06:57:08;;;;;;;7.88;3.40;;;;;;;9.45;100.00;100926.34;5042573;28;20465;-81
2024/01/26 06:59:37;;;;;;;6.53;3.40;;;;;;;9.42;100.00;100919.47;5068181;28;20052;-80
2024/01/26 07:02:04;;;;;;;8.20;3.47;;;;;;;9.43;100.00;100909.69;5035196;28;20522;-81
2024/01/26 07:04:32;;;;;;;11.38;3.90;;;;;;;9.46;100.00;100917.44;5014476;28;20045;-81
2024/01/26 07:06:58;;;;;;;7.95;3.10;;;;;;;9.51;100.00;100907.38;5035886;28;20124;-82
2024/01/26 07:09:26;;;;;;;9.05;2.65;;;;;;;9.46;100.00;100906.84;5061311;28;20039;-82
2024/01/26 07:11:53;;;;;;;4.47;2.97;;;;;;;9.46;100.00;100910.31;5013787;28;20049;-81
2024/01/26 07:14:19;;;;;;;12.27;5.20;;;;;;;9.46;100.00;100914.78;5028758;28;20045;-80
2024/01/26 07:16:46;;;;;;;8.57;3.85;;;;;;;9.46;100.00;100922.75;5030558;28;20125;-81
2024/01/26 07:19:13;;;;;;;6.05;3.50;;;;;;;9.45;100.00;100913.94;5033564;28;21004;-80
2024/01/26 07:21:40;;;;;;;4.85;3.17;;;;;;;9.47;100.00;100924.47;5030491;28;20692;-81
2024/01/26 07:24:08;;;;;;;10.73;4.22;;;;;;;9.47;100.00;100929.75;5032514;28;20055;-80
2024/01/26 07:26:35;;;;;;;9.32;5.10;;;;;;;9.47;100.00;100937.72;5016012;28;20045;-81
2024/01/26 07:29:02;;;;;;;9.57;3.70;;;;;;;9.46;100.00;100922.75;5065769;28;20147;-81
2024/01/26 07:31:29;;;;;;;12.90;5.70;;;;;;;9.46;100.00;100920.09;5016101;28;20049;-81
2024/01/26 07:33:55;;;;;;;13.98;6.35;;;;;;;9.48;100.00;100923.50;5033941;28;20049;-81
2024/01/26 07:36:22;;;;;;;14.75;5.25;;;;;;;9.50;100.00;100908.34;5025567;28;20702;-81
2024/01/26 07:38:49;;;;;;;15.57;6.55;;;;;;;9.45;100.00;100907.81;5033291;28;20041;-81
2024/01/26 07:41:16;;;;;;;16.23;6.78;;;;;;;9.49;100.00;100901.31;5033287;28;20116;-81
2024/01/26 07:43:43;;;;;;;17.58;7.07;;;;;;;9.49;100.00;100904.84;5032589;28;20127;-81
2024/01/26 07:46:10;;;;;;;16.83;7.53;;;;;;;9.52;100.00;100903.78;5016416;28;20106;-81
2024/01/26 07:48:37;;;;;;;15.32;7.28;;;;;;;9.52;100.00;100903.78;5016295;28;20053;-81
2024/01/26 07:51:04;;;;;;;19.60;8.13;;;;;;;9.50;100.00;100898.59;5044448;28;20124;-80
2024/01/26 07:53:31;;;;;;;18.58;7.30;;;;;;;9.52;100.00;100903.78;5031982;28;20052;-81
2024/01/26 07:55:58;;;;;;;16.67;7.35;;;;;;;9.54;100.00;100912.47;5030555;28;20068;-80
2024/01/26 07:58:25;;;;;;;21.58;7.63;;;;;;;9.52;100.00;100899.34;5059623;28;20053;-81
2024/01/26 08:00:51;;;;;;;16.33;7.43;;;;;;;9.54;100.00;100907.16;5061521;28;20069;-81
2024/01/26 08:03:18;;;;;;;21.52;8.40;;;;;;;9.54;100.00;100905.38;5062190;28;20064;-81
2024/01/26 08:05:46;;;;;;;17.00;7.53;;;;;;;9.56;100.00;100905.28;5020555;28;20049;-80
2024/01/26 08:08:12;;;;;;;17.58;7.70;;;;;;;9.48;100.00;100907.59;5015205;28;20477;-80
2024/01/26 08:10:40;;;;;;;18.30;7.18;;;;;;;9.51;100.00;100908.22;5062727;28;20049;-81
2024/01/26 08:13:06;;;;;;;17.75;6.28;;;;;;;9.54;100.00;100912.47;5031503;28;20045;-81
2024/01/26 08:15:33;;;;;;;19.33;6.93;;;;;;;9.55;100.00;100903.59;5019483;28;20044;-81
2024/01/26 08:18:00;;;;;;;15.20;7.07;;;;;;;9.57;100.00;100896.38;5061841;28;20128;-81
2024/01/26 08:20:27;;;;;;;15.50;7.40;;;;;;;9.57;100.00;100899.88;5033216;28;20547;-82
2024/01/26 08:22:54;;;;;;;18.13;7.65;;;;;;;9.60;100.00;100887.38;5031876;28;21023;-82
2024/01/26 08:25:21;;;;;;;14.95;6.72;;;;;;;9.60;100.00;100882.06;5027978;28;20628;-82
2024/01/26 08:27:48;;;;;;;19.83;7.82;;;;;;;9.63;100.00;100893.31;5061520;28;20045;-81
2024/01/26 08:30:15;;;;;;;25.33;8.90;;;;;;;9.62;100.00;100881.00;5028755;28;20488;-82
2024/01/26 08:32:42;;;;;;;17.95;8.57;;;;;;;9.64;100.00;100880.88;5061417;28;20076;-81
2024/01/26 08:35:09;;;;;;;13.98;6.78;;;;;;;9.59;100.00;100875.88;5015072;28;20055;-81
2024/01/26 08:37:38;;;;;;;17.63;8.00;;;;;;;9.59;100.00;100877.69;5032041;28;20465;-82
2024/01/26 08:40:06;;;;;;;17.17;7.18;;;;;;;9.59;100.00;100881.19;5044926;28;20045;-82
2024/01/26 08:42:33;;;;;;;21.92;8.05;;;;;;;9.62;100.00;100883.66;5002417;28;20042;-82
2024/01/26 08:45:00;;;;;;;24.77;7.93;;;;;;;9.64;100.00;100876.47;5020391;28;20123;-82
2024/01/26 08:47:27;;;;;;;19.65;8.35;;;;;;;9.67;100.00;100867.44;5063670;28;20052;-82
2024/01/26 08:49:54;;;;;;;24.05;8.98;;;;;;;9.68;100.00;100864.66;5027978;28;20380;-81
2024/01/26 08:52:21;;;;;;;23.02;8.85;;;;;;;9.64;100.00;100867.63;5028133;28;20082;-81
2024/01/26 08:54:48;;;;;;;19.30;7.03;;;;;;;9.70;100.00;100881.34;5030089;28;20055;-82
2024/01/26 08:57:15;;;;;;;18.50;6.95;;;;;;;9.68;100.00;100872.63;5042842;28;20889;-81
2024/01/26 08:59:43;;;;;;;20.10;8.70;;;;;;;9.66;100.00;100877.16;5029047;28;20135;-82
2024/01/26 09:02:10;;;;;;;25.67;7.25;;;;;;;9.69;100.00;100876.13;5015683;28;20044;-82
2024/01/26 09:04:37;;;;;;;18.00;7.25;;;;;;;9.68;100.00;100875.28;5032730;28;20048;-82
2024/01/26 09:07:04;;;;;;;18.90;6.63;;;;;;;9.67;100.00;100870.94;5028467;28;20697;-82
2024/01/26 09:09:37;;;;;;;12.98;5.28;;;;;;;9.69;100.00;100865.50;5030358;28;20087;-82
2024/01/26 09:12:05;;;;;;;19.17;5.70;;;;;;;9.71;100.00;100875.06;5026334;28;20053;-82
2024/01/26 09:14:31;;;;;;;17.67;7.05;;;;;;;9.73;100.00;100865.19;5020335;28;20053;-83
2024/01/26 09:17:00;;;;;;;22.13;7.30;;;;;;;9.73;100.00;100851.09;5028381;28;20484;-82
2024/01/26 09:19:27;;;;;;;22.33;7.53;;;;;;;9.73;100.00;100849.28;5041988;28;20045;-83
2024/01/26 09:21:54;;;;;;;27.95;9.55;;;;;;;9.76;100.00;100848.22;5033274;28;20040;-82
2024/01/26 09:24:21;;;;;;;22.55;6.88;;;;;;;9.78;100.00;100844.50;5065058;28;20053;-82
2024/01/26 09:26:49;;;;;;;13.48;5.68;;;;;;;9.81;100.00;100834.66;5026998;28;20072;-83
2024/01/26 09:29:17;;;;;;;14.65;6.15;;;;;;;9.83;100.00;100838.91;5032094;28;20056;-82
2024/01/26 09:31:43;;;;;;;15.35;6.25;;;;;;;9.80;100.00;100833.81;5031481;28;20056;-84
2024/01/26 09:34:10;;;;;;;8.93;4.63;;;;;;;9.83;100.00;100832.75;5017296;28;20049;-83
2024/01/26 09:36:37;;;;;;;21.85;6.30;;;;;;;9.80;100.00;100832.97;5035064;28;20053;-83
2024/01/26 09:39:04;;;;;;;12.10;4.65;;;;;;;9.84;100.00;100840.56;5049405;28;20048;-82
2024/01/26 09:41:32;;;;;;;10.27;4.22;;;;;;;9.85;100.00;100847.59;5031333;28;20630;-83
2024/01/26 09:43:59;;;;;;;13.52;5.43;;;;;;;9.81;100.00;100838.16;5031423;28;20059;-82
2024/01/26 09:46:26;;;;;;;21.60;7.10;;;;;;;9.83;100.00;100830.09;5034703;28;20540;-84
2024/01/26 09:48:54;;;;;;;17.92;5.88;;;;;;;9.82;100.00;100833.69;5027928;28;20676;-84
2024/01/26 09:51:26;;;;;;;13.05;4.82;;;;;;;9.85;100.00;100833.50;5027056;28;20500;-84
2024/01/26 09:53:59;;;;;;;22.10;5.68;;;;;;;9.83;100.00;100838.91;5027299;28;20100;-83
2024/01/26 09:56:29;;;;;;;14.77;6.50;;;;;;;9.87;100.00;100834.22;5024611;28;20045;-83
2024/01/26 09:59:03;;;;;;;17.33;7.13;;;;;;;9.87;100.00;100834.22;5022610;28;20056;-83
2024/01/26 10:01:32;;;;;;;21.55;6.57;;;;;;;9.83;100.00;100830.94;5036924;28;20051;-84
2024/01/26 10:03:59;;;;;;;11.10;5.15;;;;;;;9.87;100.00;100837.75;5032590;28;20121;-84
2024/01/26 10:06:26;;;;;;;14.13;4.95;;;;;;;9.89;100.00;100816.38;5060428;28;20086;-86
2024/01/26 10:08:53;;;;;;;8.30;4.38;;;;;;;9.90;100.00;100807.50;5021056;28;20050;-85
2024/01/26 10:11:20;;;;;;;14.93;5.07;;;;;;;9.92;100.00;100810.88;5014279;28;20160;-82
2024/01/26 10:13:47;;;;;;;22.05;6.50;;;;;;;9.93;100.00;100808.13;5033971;28;20042;-83
2024/01/26 10:16:13;;;;;;;14.50;5.50;;;;;;;9.93;100.00;100816.06;5014001;28;20542;-82
2024/01/26 10:18:45;;;;;;;12.15;5.97;;;;;;;9.91;100.00;100811.84;4999237;28;20042;-82
2024/01/26 10:21:15;;;;;;;14.10;6.68;;;;;;;9.91;100.00;100817.13;4996790;28;20052;-82
2024/01/26 10:23:42;;;;;;;14.88;5.97;;;;;;;9.91;100.00;100803.88;5034805;28;20136;-82
2024/01/26 10:26:10;;;;;;;14.48;5.53;;;;;;;9.90;100.00;100811.00;5030298;28;20041;-83
2024/01/26 10:28:38;;;;;;;13.60;6.18;;;;;;;9.90;100.00;100813.66;5018937;28;20038;-83
2024/01/26 10:31:05;;;;;;;11.77;5.47;;;;;;;9.90;100.00;100810.16;5031390;28;20124;-81
2024/01/26 10:33:32;;;;;;;24.92;7.43;;;;;;;9.88;100.00;100802.28;5035778;28;20548;-82
2024/01/26 10:36:00;;;;;;;20.30;6.72;;;;;;;9.89;100.00;100795.16;5035100;28;20048;-82
2024/01/26 10:38:29;;;;;;;26.05;8.20;;;;;;;9.89;100.00;100800.47;5018578;28;20045;-82
2024/01/26 10:41:02;;;;;;;18.38;7.07;;;;;;;9.86;100.00;100798.88;5033061;28;20732;-82
2024/01/26 10:43:33;;;;;;;20.67;7.32;;;;;;;9.88;100.00;100801.44;5027406;28;20748;-83
2024/01/26 10:46:01;;;;;;;37.17;8.85;;;;;;;9.89;100.00;100800.47;5014864;28;20110;-82
2024/01/26 10:48:29;;;;;;;24.98;8.60;;;;;;;9.88;100.00;100793.47;5034336;28;20041;-82
2024/01/26 10:50:57;;;;;;;31.92;12.32;;;;;;;9.88;100.00;100788.19;5019945;28;20052;-82
2024/01/26 10:53:26;;;;;;;16.58;7.25;;;;;;;9.87;100.00;100794.41;5039008;28;20053;-82
2024/01/26 10:55:54;;;;;;;18.92;6.38;;;;;;;9.88;100.00;100790.84;5029984;28;20049;-80
2024/01/26 10:58:20;;;;;;;14.38;5.68;;;;;;;9.88;100.00;100788.19;5023458;28;20133;-81
2024/01/26 11:00:47;;;;;;;21.98;6.93;;;;;;;9.85;100.00;100783.94;5028220;28;20488;-83
2024/01/26 11:03:14;;;;;;;13.70;5.65;;;;;;;9.86;100.00;100784.78;5033611;28;20060;-82
2024/01/26 11:05:48;;;;;;;20.75;6.30;;;;;;;9.83;100.00;100769.94;5028657;28;20112;-82
2024/01/26 11:08:18;;;;;;;;;;;;;;;9.74;100.00;100768.78;5016865;28;20677;-82
2024/01/26 11:10:47;;;;;;;15.65;5.25;;;;;;;9.83;100.00;100769.94;5030831;28;19924;-82
2024/01/26 11:13:15;;;;;;;21.80;6.70;;;;;;;9.84;100.00;100765.47;5033104;28;20977;-82
2024/01/26 11:15:43;;;;;;;24.45;7.80;;;;;;;9.85;100.00;100757.41;5046118;28;20050;-82
2024/01/26 11:18:22;;;;;;;22.35;7.00;;;;;;;9.81;100.00;100747.13;5004453;28;20052;-82